Cary, NC (27519)

5:01 AM EDT on April 20, 2018 (GMT -0400)
Harmony | | Change Station
Active Advisory: Frost Advisory

Elev 417 ft 35.77 °N, 78.88 °W | Updated 23 seconds ago

Clear
Clear
34.0 °F
Feels Like 34 °F
N
0.0
Wind Variable Wind from North
Gusts 0.0 mph

Today
High -- | Low -- °F
--% Chance of Precip.
Yesterday
High -- | Low -- °F
Precip. -- in
Pressure 30.27 in
Visibility 10.0 miles
Clouds Clear
Windchill 34 °F
Dew Point 31 °F
Humidity 90%
Rainfall 0.00 in
Snow Depth Not available.
6:36 AM 7:53 PM
Waxing Crescent, 22% visible
METAR KRDU 200851Z 00000KT 10SM CLR 02/M01 A3026 RMK AO2 SLP249 T00221011 51006
Pressure 30.27 in
Visibility 10.0 miles
Clouds Clear
Windchill 34 °F
Dew Point 31 °F
Humidity 90%
Rainfall 0.00 in
Snow Depth Not available.
6:36 AM 7:53 PM
Waxing Crescent, 22% visible
METAR KRDU 200851Z 00000KT 10SM CLR 02/M01 A3026 RMK AO2 SLP249 T00221011 51006

Get Your Daily Forecast Email!

Thanks for signing up!

Be on the lookout for a verification email in your inbox.

You'll start receiving severe weather alerts in your inbox..

×

10-Day Weather Forecast

Almanac

Astronomy

Apr. 20, 2018 Rise Set
Actual Time
Civil Twilight
Nautical Twilight
Astronomical Twilight
Moon
Length of Visible Light
Length of Day
Tomorrow will be .
, % of the Moon is Illuminated

Today's Extremes

State Highs State Lows

Community

WunderPhotos

Category 6

Welcome to Category 6. This is the collective home for Weather Underground's featured writeups by Dr. Jeff Masters (right), Bob Henson (left), Chris Burt, and other regular contributors.

Nearby

Air Quality

  Air Quality AQ Index Pollutant
Not available.

Snow Depth

Station Depth Elevation

Earthquake Activity

City Distance Mag. Time & Date
Minimum magnitude displayed is 2.5.

Coastal Water Temperatures

Place Temperature

Stations

Nearby Weather Stations

Station Location Temp. Windchill Dew Point Humidity Wind Precip. Elev Updated Type
                   

Watches & Warnings

Frost Advisory
Issued: 3:52 AM EDT Apr. 20, 2018 – National Weather Service

... Frost advisory remains in effect until 9 am EDT this morning...

* temperatures... in the mid 30s.

* Timing... 400 am through 900 am...

* impacts... frost may damage sensitive vegetation. Take steps now
to protect tender plants from the cold.

Precautionary/preparedness actions...

A frost advisory means that frost is possible. Sensitive outdoor
plants may be killed if left uncovered.